Time;durP1;ratioP1;P1;durP2;ratioP2;P2;SDS_P1;SDS_P2;PMS_P1;PMS_P2;Temp;Humidity;BMP_temperature;BMP_pressure;BME280_temperature;BME280_humidity;BME280_pressure;Samples;Min_cycle;Max_cycle;Signal;HPM_P1;HPM_P2
2021/01/26 00:01:23;;;;;;;14.15;2.63;;;4.60;99.90;;;;;;5031561;28;20033;-78
2021/01/26 00:03:49;;;;;;;14.23;2.17;;;4.60;99.90;;;;;;5026602;28;20033;-78
2021/01/26 00:06:15;;;;;;;8.48;1.63;;;4.50;99.90;;;;;;5022944;28;20381;-80
2021/01/26 00:08:41;;;;;;;9.85;2.85;;;4.50;99.90;;;;;;5029798;28;20018;-79
2021/01/26 00:11:07;;;;;;;13.63;1.73;;;4.50;99.90;;;;;;5031820;28;20044;-78
2021/01/26 00:13:34;;;;;;;9.95;1.35;;;4.50;99.90;;;;;;5027448;28;20022;-77
2021/01/26 00:16:00;;;;;;;12.32;1.92;;;4.60;99.90;;;;;;5024374;28;20069;-78
2021/01/26 00:18:26;;;;;;;15.27;1.70;;;4.60;99.90;;;;;;5026810;28;20029;-79
2021/01/26 00:20:51;;;;;;;12.98;3.17;;;4.60;99.90;;;;;;5028826;28;20017;-78
2021/01/26 00:23:18;;;;;;;8.98;1.65;;;4.60;99.90;;;;;;5032620;28;20093;-80
2021/01/26 00:25:44;;;;;;;9.02;1.33;;;4.60;99.90;;;;;;5018525;28;20033;-76
2021/01/26 00:28:12;;;;;;;12.65;2.25;;;4.60;99.90;;;;;;5025343;28;20064;-76
2021/01/26 00:30:40;;;;;;;12.63;2.38;;;4.60;99.90;;;;;;5018558;28;20082;-76
2021/01/26 00:33:09;;;;;;;13.88;1.83;;;4.70;99.90;;;;;;5031120;28;20100;-79
2021/01/26 00:35:35;;;;;;;10.50;2.40;;;4.80;99.90;;;;;;5014667;28;20034;-77
2021/01/26 00:38:02;;;;;;;7.47;1.20;;;4.70;99.90;;;;;;5020437;28;20068;-78
2021/01/26 00:40:29;;;;;;;8.53;1.87;;;4.60;99.90;;;;;;5029725;28;20033;-78
2021/01/26 00:42:55;;;;;;;13.43;1.07;;;4.40;99.90;;;;;;5026312;28;20482;-78
2021/01/26 00:45:23;;;;;;;7.63;1.90;;;4.40;99.90;;;;;;5017833;28;20049;-79
2021/01/26 00:47:50;;;;;;;10.90;2.05;;;4.30;99.90;;;;;;5031900;28;20409;-78
2021/01/26 00:50:17;;;;;;;6.53;1.65;;;4.10;99.90;;;;;;5031402;28;20030;-77
2021/01/26 00:52:44;;;;;;;3.97;0.90;;;4.10;99.90;;;;;;5032108;28;20131;-79
2021/01/26 00:55:10;;;;;;;6.60;1.40;;;4.00;99.90;;;;;;5018129;28;20827;-78
2021/01/26 00:57:38;;;;;;;10.25;0.65;;;4.00;99.90;;;;;;5026307;28;20259;-77
2021/01/26 01:00:11;;;;;;;4.50;0.80;;;3.90;99.90;;;;;;5025557;28;20025;-78
2021/01/26 01:02:37;;;;;;;12.30;1.00;;;4.00;99.90;;;;;;5018852;28;20104;-79
2021/01/26 01:05:05;;;;;;;2.55;1.23;;;4.00;99.90;;;;;;5027380;28;20569;-77
2021/01/26 01:07:30;;;;;;;2.13;0.80;;;4.00;99.90;;;;;;5020679;28;20394;-77
2021/01/26 01:09:56;;;;;;;3.40;0.85;;;4.10;99.90;;;;;;5025126;28;20124;-77
2021/01/26 01:12:22;;;;;;;7.07;0.40;;;4.00;99.90;;;;;;5033266;28;20060;-78
2021/01/26 01:14:49;;;;;;;7.47;0.85;;;4.00;99.90;;;;;;5026148;28;20468;-77
2021/01/26 01:17:14;;;;;;;5.53;0.93;;;4.00;99.90;;;;;;5019812;28;20098;-76
2021/01/26 01:19:40;;;;;;;7.55;0.85;;;4.00;99.90;;;;;;5013893;28;20125;-77
2021/01/26 01:22:06;;;;;;;5.38;0.70;;;4.00;99.90;;;;;;5031036;28;20470;-78
2021/01/26 01:24:31;;;;;;;5.88;0.52;;;4.10;99.90;;;;;;5034458;28;20033;-77
2021/01/26 01:26:57;;;;;;;6.03;0.98;;;4.20;99.90;;;;;;5014199;28;20030;-78
2021/01/26 01:29:29;;;;;;;6.22;0.88;;;4.20;99.90;;;;;;5018885;28;20028;-79
2021/01/26 01:31:55;;;;;;;12.10;1.23;;;4.20;99.90;;;;;;5019761;28;20033;-77
2021/01/26 01:34:21;;;;;;;19.67;1.23;;;4.20;99.90;;;;;;5018842;28;20029;-78
2021/01/26 01:36:47;;;;;;;9.45;1.23;;;4.20;99.90;;;;;;5014436;28;20061;-79
2021/01/26 01:39:12;;;;;;;6.22;1.95;;;4.20;99.90;;;;;;5017652;28;20033;-78
2021/01/26 01:41:38;;;;;;;12.32;1.60;;;4.20;99.90;;;;;;5026009;28;20056;-78
2021/01/26 01:44:05;;;;;;;13.20;2.65;;;4.20;99.90;;;;;;5016148;28;20068;-78
2021/01/26 01:46:37;;;;;;;7.22;1.23;;;4.20;99.90;;;;;;5012983;28;20037;-78
2021/01/26 01:49:05;;;;;;;20.33;2.72;;;4.30;99.90;;;;;;5013092;28;20447;-77
2021/01/26 01:51:36;;;;;;;14.27;1.88;;;4.30;99.90;;;;;;5017338;28;20025;-79
2021/01/26 01:54:15;;;;;;;12.68;1.17;;;4.30;99.90;;;;;;5046453;28;20036;-79
2021/01/26 01:56:52;;;;;;;17.83;1.20;;;4.30;99.90;;;;;;5016106;28;20025;-78
2021/01/26 01:59:25;;;;;;;10.35;1.13;;;4.30;99.90;;;;;;5031359;28;20116;-78
2021/01/26 02:01:51;;;;;;;7.63;1.27;;;4.30;99.90;;;;;;5016959;28;20098;-78
2021/01/26 02:04:20;;;;;;;8.77;0.73;;;4.30;99.90;;;;;;5010675;28;20038;-77
2021/01/26 02:06:50;;;;;;;4.82;0.93;;;4.20;99.90;;;;;;5015270;28;20121;-78
2021/01/26 02:09:19;;;;;;;15.05;1.42;;;4.10;99.90;;;;;;5026426;28;20499;-78
2021/01/26 02:11:46;;;;;;;10.02;1.00;;;4.10;99.90;;;;;;5022106;28;20090;-80
2021/01/26 02:14:13;;;;;;;6.03;0.70;;;4.10;99.90;;;;;;5014488;28;20136;-78
2021/01/26 02:17:09;;;;;;;13.07;1.08;;;4.00;99.90;;;;;;5032423;28;20061;-78
2021/01/26 02:19:41;;;;;;;6.82;0.75;;;4.00;99.90;;;;;;5014786;28;20471;-78
2021/01/26 02:22:34;;;;;;;4.85;0.60;;;3.90;99.90;;;;;;5016764;28;20048;-78
2021/01/26 02:25:15;;;;;;;12.77;0.65;;;3.90;99.90;;;;;;5020876;28;20037;-78
2021/01/26 02:28:35;;;;;;;8.18;0.65;;;3.80;99.90;;;;;;5022658;28;20489;-78
2021/01/26 02:31:25;;;;;;;4.53;1.30;;;3.80;99.90;;;;;;4974263;28;20410;-78
2021/01/26 02:34:09;;;;;;;2.97;0.40;;;3.90;99.90;;;;;;5018326;28;20057;-77
2021/01/26 02:37:12;;;;;;;6.57;0.52;;;3.90;99.90;;;;;;5018032;28;20040;-78
2021/01/26 02:39:51;;;;;;;5.93;0.95;;;3.90;99.90;;;;;;5013059;28;20133;-78
2021/01/26 02:42:54;;;;;;;7.13;0.70;;;3.80;99.90;;;;;;5021602;28;20029;-78
2021/01/26 02:45:44;;;;;;;5.88;1.02;;;3.80;99.90;;;;;;5024181;28;20045;-79
2021/01/26 02:48:52;;;;;;;10.90;1.98;;;3.80;99.90;;;;;;5020749;28;20377;-78
2021/01/26 02:51:41;;;;;;;;;;;3.80;99.90;;;;;;5020413;28;20048;-78
2021/01/26 02:54:29;;;;;;;12.77;1.67;;;3.90;99.90;;;;;;5029308;28;19914;-78
2021/01/26 02:57:27;;;;;;;2.53;0.77;;;3.80;99.90;;;;;;5019560;28;20026;-78
2021/01/26 03:00:00;;;;;;;;;;;3.90;99.90;;;;;;5013822;28;20034;-78
2021/01/26 03:02:37;;;;;;;8.48;1.02;;;3.90;99.90;;;;;;5017834;28;19909;-78
2021/01/26 03:05:09;;;;;;;16.13;2.47;;;3.90;99.90;;;;;;5029085;28;20036;-78
2021/01/26 03:07:42;;;;;;;15.85;2.42;;;3.90;99.90;;;;;;5022481;28;20044;-77
2021/01/26 03:10:14;;;;;;;19.27;1.90;;;4.00;99.90;;;;;;5018899;28;20033;-77
2021/01/26 03:12:43;;;;;;;10.70;1.58;;;4.00;99.90;;;;;;5014365;28;20477;-78
2021/01/26 03:15:09;;;;;;;16.48;1.90;;;4.00;99.90;;;;;;5021318;28;20037;-77
2021/01/26 03:17:40;;;;;;;9.95;1.80;;;4.10;99.90;;;;;;5027508;28;20017;-77
2021/01/26 03:20:20;;;;;;;10.60;1.30;;;4.10;99.90;;;;;;5024863;28;20529;-78
2021/01/26 03:22:51;;;;;;;7.82;1.52;;;4.20;99.90;;;;;;5033622;28;20075;-78
2021/01/26 03:25:21;;;;;;;9.55;1.25;;;4.30;99.90;;;;;;5028880;28;20033;-77
2021/01/26 03:27:51;;;;;;;3.90;0.82;;;4.30;99.90;;;;;;5032483;28;20450;-77
2021/01/26 03:30:22;;;;;;;6.82;0.63;;;4.30;99.90;;;;;;5030150;28;20116;-77
2021/01/26 03:32:55;;;;;;;3.72;1.35;;;4.20;99.90;;;;;;5027956;28;20124;-78
2021/01/26 03:35:21;;;;;;;16.27;2.17;;;4.20;99.90;;;;;;5030016;28;20123;-78
2021/01/26 03:37:53;;;;;;;14.93;1.40;;;4.20;99.90;;;;;;5022450;28;20473;-78
2021/01/26 03:40:19;;;;;;;11.57;2.10;;;4.30;99.90;;;;;;5021287;28;20029;-79
2021/01/26 03:42:45;;;;;;;7.63;1.60;;;4.30;99.90;;;;;;5026749;28;20494;-79
2021/01/26 03:45:12;;;;;;;14.57;2.67;;;4.30;99.90;;;;;;5021800;28;20034;-78
2021/01/26 03:47:58;;;;;;;7.75;1.00;;;4.30;99.90;;;;;;5020210;28;20030;-79
2021/01/26 03:50:35;;;;;;;8.82;1.58;;;4.30;99.90;;;;;;5021014;28;20037;-79
2021/01/26 03:53:29;;;;;;;7.40;0.82;;;4.40;99.90;;;;;;5015016;28;20036;-79
2021/01/26 03:56:32;;;;;;;8.80;1.40;;;4.30;99.90;;;;;;5024883;28;20057;-80
2021/01/26 03:59:19;;;;;;;8.45;1.17;;;4.30;99.90;;;;;;5015906;28;20518;-79
2021/01/26 04:02:00;;;;;;;13.45;1.73;;;4.30;99.90;;;;;;5032422;28;20029;-79
2021/01/26 04:04:38;;;;;;;16.67;1.70;;;4.30;99.90;;;;;;5022997;28;20057;-79
2021/01/26 04:07:06;;;;;;;;;;;4.30;99.90;;;;;;5029882;28;20401;-80
2021/01/26 04:09:43;;;;;;;9.25;1.85;;;4.30;99.90;;;;;;5016195;28;19936;-79
2021/01/26 04:12:25;;;;;;;12.70;1.65;;;4.30;99.90;;;;;;5026145;28;20037;-78
2021/01/26 04:15:13;;;;;;;12.52;2.13;;;4.30;99.90;;;;;;5027256;28;20129;-79
2021/01/26 04:17:49;;;;;;;10.10;1.67;;;4.30;99.90;;;;;;5025462;28;20536;-79
2021/01/26 04:20:23;;;;;;;10.50;0.90;;;4.30;99.90;;;;;;5033203;28;20512;-79
2021/01/26 04:22:59;;;;;;;18.17;2.22;;;4.30;99.90;;;;;;5025525;28;20087;-80
2021/01/26 04:25:38;;;;;;;7.20;1.27;;;4.30;99.90;;;;;;5021827;28;20041;-80
2021/01/26 04:28:07;;;;;;;2.60;0.60;;;4.40;99.90;;;;;;5026408;28;20029;-79
2021/01/26 04:30:33;;;;;;;7.15;0.98;;;4.40;99.90;;;;;;5024698;28;20032;-79
2021/01/26 04:33:03;;;;;;;14.18;1.42;;;4.30;99.90;;;;;;5026295;28;20041;-79
2021/01/26 04:35:30;;;;;;;7.32;1.90;;;4.30;99.90;;;;;;5025863;28;20030;-79
2021/01/26 04:37:56;;;;;;;14.02;2.28;;;4.30;99.90;;;;;;5025850;28;20110;-79
2021/01/26 04:40:24;;;;;;;6.30;1.23;;;4.20;99.90;;;;;;5024161;28;20120;-80
2021/01/26 04:42:57;;;;;;;9.93;2.03;;;4.30;99.90;;;;;;5022461;28;20034;-80
2021/01/26 04:45:33;;;;;;;12.23;1.13;;;4.30;99.90;;;;;;5025627;28;20037;-79
2021/01/26 04:48:25;;;;;;;8.50;1.00;;;4.30;99.90;;;;;;5031894;28;20040;-79
2021/01/26 04:51:07;;;;;;;21.92;1.60;;;4.30;99.90;;;;;;5022609;28;20516;-79
2021/01/26 04:53:57;;;;;;;8.00;1.95;;;4.20;99.90;;;;;;5020606;28;20045;-80
2021/01/26 04:56:57;;;;;;;11.52;1.33;;;4.20;99.90;;;;;;5025252;28;20048;-80
2021/01/26 04:59:32;;;;;;;14.27;1.23;;;4.30;99.90;;;;;;5045141;28;20057;-79
2021/01/26 05:02:14;;;;;;;6.85;1.63;;;4.30;99.90;;;;;;5022826;28;20124;-79
2021/01/26 05:04:53;;;;;;;11.63;1.63;;;4.30;99.90;;;;;;5020094;28;20038;-79
2021/01/26 05:07:47;;;;;;;11.45;1.35;;;4.40;99.90;;;;;;5017243;28;20432;-79
2021/01/26 05:10:19;;;;;;;9.65;1.83;;;4.40;99.90;;;;;;5020448;28;20030;-81
2021/01/26 05:12:53;;;;;;;11.25;1.30;;;4.50;99.90;;;;;;5034136;28;20037;-80
2021/01/26 05:15:25;;;;;;;11.50;1.25;;;4.50;99.90;;;;;;5025225;28;20406;-81
2021/01/26 05:18:03;;;;;;;8.15;1.50;;;4.60;99.90;;;;;;5025057;28;20022;-80
2021/01/26 05:20:37;;;;;;;7.72;1.63;;;4.60;99.90;;;;;;5030099;28;20017;-79
2021/01/26 05:23:19;;;;;;;10.57;1.65;;;4.70;99.90;;;;;;5006659;28;20121;-80
2021/01/26 05:25:46;;;;;;;17.45;1.10;;;4.80;99.90;;;;;;5034086;28;20030;-79
2021/01/26 05:28:12;;;;;;;9.77;1.50;;;4.80;99.90;;;;;;5026107;28;20486;-80
2021/01/26 05:30:39;;;;;;;7.00;1.35;;;4.70;99.90;;;;;;5024430;28;20040;-80
2021/01/26 05:33:10;;;;;;;8.80;1.00;;;4.70;99.90;;;;;;5019660;28;20036;-80
2021/01/26 05:35:41;;;;;;;10.65;0.80;;;4.70;99.90;;;;;;5016946;28;20042;-81
2021/01/26 05:38:08;;;;;;;8.90;1.23;;;4.70;99.90;;;;;;5022025;28;20391;-81
2021/01/26 05:40:42;;;;;;;10.27;0.93;;;4.70;99.90;;;;;;5027616;28;20079;-80
2021/01/26 05:43:12;;;;;;;10.90;1.38;;;4.70;99.90;;;;;;5016667;28;20034;-80
2021/01/26 05:45:45;;;;;;;12.73;1.60;;;4.70;99.90;;;;;;5032330;28;20053;-80
2021/01/26 05:48:17;;;;;;;7.50;1.40;;;4.70;99.90;;;;;;5025830;28;20428;-81
2021/01/26 05:50:45;;;;;;;13.80;0.93;;;4.80;99.90;;;;;;5018393;28;20022;-81
2021/01/26 05:53:25;;;;;;;15.38;2.08;;;4.90;99.90;;;;;;5029301;28;20033;-81
2021/01/26 05:56:00;;;;;;;6.65;1.10;;;4.90;99.90;;;;;;5026537;28;20036;-81
2021/01/26 05:58:28;;;;;;;13.18;2.17;;;5.00;99.90;;;;;;5023455;28;20072;-80
2021/01/26 06:01:02;;;;;;;5.05;1.50;;;5.00;99.90;;;;;;5028298;28;20071;-82
2021/01/26 06:03:29;;;;;;;6.57;0.93;;;4.80;99.90;;;;;;5024148;28;20025;-81
2021/01/26 06:06:16;;;;;;;5.45;0.73;;;4.70;99.90;;;;;;5022838;28;20421;-82
2021/01/26 06:08:54;;;;;;;7.97;0.80;;;4.70;99.90;;;;;;5025096;28;20025;-80
2021/01/26 06:11:23;;;;;;;11.93;1.42;;;4.60;99.90;;;;;;5016578;28;20033;-81
2021/01/26 06:13:51;;;;;;;8.07;2.30;;;4.60;99.90;;;;;;5012980;28;20401;-80
2021/01/26 06:16:23;;;;;;;;;;;4.60;99.90;;;;;;5022504;28;20116;-80
2021/01/26 06:18:58;;;;;;;6.07;0.80;;;4.60;99.90;;;;;;5026224;28;19917;-80
2021/01/26 06:21:25;;;;;;;14.27;1.30;;;4.60;99.90;;;;;;5016279;28;20040;-80
2021/01/26 06:23:51;;;;;;;6.72;1.00;;;4.60;99.90;;;;;;5027368;28;20053;-80
2021/01/26 06:26:19;;;;;;;10.07;0.80;;;4.60;99.90;;;;;;5019706;28;20022;-82
2021/01/26 06:29:15;;;;;;;10.57;1.05;;;4.60;99.90;;;;;;5013356;28;20037;-81
2021/01/26 06:32:10;;;;;;;7.65;1.35;;;4.60;99.90;;;;;;5022134;28;20033;-81
2021/01/26 06:35:01;;;;;;;6.55;1.23;;;4.50;99.90;;;;;;5029638;28;20151;-82
2021/01/26 06:37:45;;;;;;;3.47;0.43;;;4.60;99.90;;;;;;5013470;28;20364;-80
2021/01/26 06:40:37;;;;;;;9.82;0.68;;;4.50;99.90;;;;;;5018502;28;20080;-80
2021/01/26 06:43:39;;;;;;;5.63;0.80;;;4.50;99.90;;;;;;4966993;28;20038;-82
2021/01/26 06:46:25;;;;;;;8.65;2.08;;;4.60;99.90;;;;;;4993321;28;20038;-80
2021/01/26 06:49:12;;;;;;;7.75;0.60;;;4.50;99.90;;;;;;4976618;28;20037;-80
2021/01/26 06:52:05;;;;;;;7.13;1.02;;;4.50;99.90;;;;;;4990973;28;20034;-81
2021/01/26 06:54:39;;;;;;;3.47;0.85;;;4.60;99.90;;;;;;4962344;28;20035;-81
2021/01/26 06:57:16;;;;;;;13.32;0.90;;;4.70;99.90;;;;;;4979395;28;20439;-79
2021/01/26 06:59:50;;;;;;;4.07;0.65;;;4.70;99.90;;;;;;4968073;28;20491;-80
2021/01/26 07:02:32;;;;;;;13.05;1.15;;;4.80;99.90;;;;;;4970690;28;20034;-80
2021/01/26 07:05:23;;;;;;;7.13;0.90;;;4.90;99.90;;;;;;4964938;28;20031;-80
2021/01/26 07:08:16;;;;;;;5.97;1.10;;;4.90;99.90;;;;;;4979743;28;20395;-80
2021/01/26 07:10:56;;;;;;;13.70;1.05;;;4.90;99.90;;;;;;4971173;28;20033;-80
2021/01/26 07:13:33;;;;;;;10.82;1.80;;;4.90;99.90;;;;;;4978810;28;20455;-79
2021/01/26 07:16:17;;;;;;;8.37;1.20;;;4.90;99.90;;;;;;4971142;28;20103;-79
2021/01/26 07:18:50;;;;;;;13.25;1.48;;;4.90;99.90;;;;;;4979246;28;20277;-79
2021/01/26 07:21:37;;;;;;;6.45;1.05;;;4.90;99.90;;;;;;5029235;28;20040;-80
2021/01/26 07:24:25;;;;;;;9.32;1.90;;;4.90;99.90;;;;;;5021451;28;20030;-80
2021/01/26 07:27:03;;;;;;;;;;;4.90;99.90;;;;;;5020938;28;20033;-79
2021/01/26 07:29:52;;;;;;;10.55;1.60;;;4.90;99.90;;;;;;5026077;28;20012;-79
2021/01/26 07:32:33;;;;;;;9.43;2.17;;;4.80;99.90;;;;;;5035763;28;20093;-79
2021/01/26 07:35:08;;;;;;;11.35;1.73;;;4.70;99.90;;;;;;5015151;28;20505;-81
2021/01/26 07:38:00;;;;;;;8.98;2.28;;;4.70;99.90;;;;;;5022922;28;20377;-80
2021/01/26 07:40:40;;;;;;;5.72;1.10;;;4.60;99.90;;;;;;5028982;28;20492;-79
2021/01/26 07:43:15;;;;;;;9.27;1.00;;;4.60;99.90;;;;;;5024701;28;20394;-80
2021/01/26 07:45:53;;;;;;;6.03;1.15;;;4.60;99.90;;;;;;5035869;28;20026;-80
2021/01/26 07:49:13;;;;;;;5.28;1.00;;;4.70;99.90;;;;;;5020046;28;20034;-80
2021/01/26 07:51:43;;;;;;;3.20;1.10;;;4.70;99.90;;;;;;4990830;28;20138;-82
2021/01/26 07:54:24;;;;;;;4.75;1.02;;;4.70;99.90;;;;;;5015442;28;20076;-78
2021/01/26 07:56:49;;;;;;;5.78;0.90;;;4.70;99.90;;;;;;5020287;28;20092;-79
2021/01/26 07:59:23;;;;;;;5.60;1.20;;;4.80;99.90;;;;;;5019075;28;20018;-79
2021/01/26 08:02:00;;;;;;;6.78;0.93;;;4.80;99.90;;;;;;5026094;28;20024;-79
2021/01/26 08:04:38;;;;;;;7.97;1.10;;;4.80;99.90;;;;;;5015889;28;20041;-80
2021/01/26 08:07:05;;;;;;;2.65;1.02;;;4.90;99.90;;;;;;5023499;28;20371;-82
2021/01/26 08:09:43;;;;;;;11.10;2.35;;;4.90;99.90;;;;;;5020910;28;20124;-83
2021/01/26 08:12:15;;;;;;;2.60;0.65;;;4.80;99.90;;;;;;5047909;28;20040;-79
2021/01/26 08:14:53;;;;;;;7.10;1.35;;;4.80;99.90;;;;;;5028866;28;20050;-81
2021/01/26 08:17:33;;;;;;;3.80;0.70;;;4.80;99.90;;;;;;5018255;28;20519;-85
2021/01/26 08:20:05;;;;;;;4.38;0.60;;;4.80;99.90;;;;;;5048461;28;20477;-84
2021/01/26 08:23:02;;;;;;;7.40;0.65;;;4.70;99.90;;;;;;5022088;28;20034;-85
2021/01/26 08:25:29;;;;;;;4.17;0.40;;;4.70;99.90;;;;;;5028431;28;20080;-88
2021/01/26 08:28:00;;;;;;;3.38;1.52;;;4.80;99.90;;;;;;5037004;28;20064;-86
2021/01/26 08:30:49;;;;;;;5.88;0.88;;;4.80;99.90;;;;;;5018402;28;20034;-88
2021/01/26 08:33:18;;;;;;;6.10;1.00;;;4.90;99.90;;;;;;5031376;28;20486;-87
2021/01/26 08:36:19;;;;;;;4.63;0.85;;;5.10;99.90;;;;;;5021591;28;20072;-87
2021/01/26 08:38:47;;;;;;;10.32;1.27;;;5.10;99.90;;;;;;5024445;28;20049;-85
2021/01/26 08:41:36;;;;;;;10.27;2.67;;;5.20;99.90;;;;;;5028129;28;20045;-84
2021/01/26 08:44:29;;;;;;;2.78;1.40;;;5.20;99.90;;;;;;5020936;28;20044;-87
2021/01/26 08:46:56;;;;;;;6.22;0.77;;;5.20;99.90;;;;;;5011151;28;20051;-86
2021/01/26 08:49:30;;;;;;;7.60;0.95;;;5.30;99.90;;;;;;5018401;28;20026;-83
2021/01/26 08:52:22;;;;;;;10.52;1.52;;;5.20;99.90;;;;;;5030340;28;20338;-83
2021/01/26 08:54:50;;;;;;;10.23;0.98;;;5.10;99.90;;;;;;5020675;28;20033;-87
2021/01/26 08:57:28;;;;;;;6.15;1.63;;;5.20;99.90;;;;;;5027401;28;20038;-86
2021/01/26 09:00:25;;;;;;;8.00;1.05;;;5.20;99.90;;;;;;5028551;28;20120;-86
2021/01/26 09:02:52;;;;;;;6.10;0.98;;;5.20;99.90;;;;;;5035117;28;20026;-85
2021/01/26 09:05:40;;;;;;;3.58;0.98;;;5.20;99.90;;;;;;5036042;28;20105;-79
2021/01/26 09:08:06;;;;;;;8.15;1.25;;;5.30;99.90;;;;;;5034763;28;20057;-87
2021/01/26 09:10:41;;;;;;;4.57;1.20;;;5.30;99.90;;;;;;5037009;28;20017;-86
2021/01/26 09:13:22;;;;;;;4.97;0.98;;;5.40;99.90;;;;;;5039264;28;20029;-85
2021/01/26 09:15:53;;;;;;;13.23;1.35;;;5.50;99.90;;;;;;5039147;28;20080;-86
2021/01/26 09:18:24;;;;;;;7.65;2.08;;;5.50;99.90;;;;;;5029707;28;20057;-86
2021/01/26 09:20:52;;;;;;;4.65;1.08;;;5.50;99.90;;;;;;5036469;28;20049;-85
2021/01/26 09:23:24;;;;;;;9.07;1.42;;;5.60;99.90;;;;;;5034762;28;20385;-88
2021/01/26 09:25:50;;;;;;;3.10;1.58;;;5.70;99.90;;;;;;5030987;28;20464;-86
2021/01/26 09:28:21;;;;;;;6.45;2.03;;;5.90;99.90;;;;;;5033646;28;20064;-86
2021/01/26 09:30:50;;;;;;;11.60;1.05;;;6.00;99.90;;;;;;5023527;28;20021;-87
2021/01/26 09:33:23;;;;;;;6.55;0.95;;;6.00;99.90;;;;;;5035455;28;20021;-86
2021/01/26 09:36:15;;;;;;;9.18;1.27;;;5.90;99.90;;;;;;5025536;28;20107;-86
2021/01/26 09:38:58;;;;;;;3.90;0.90;;;5.90;99.90;;;;;;5024293;28;20056;-86
2021/01/26 09:41:29;;;;;;;8.98;0.90;;;5.80;99.90;;;;;;5029419;28;20032;-88
2021/01/26 09:44:06;;;;;;;7.38;1.02;;;5.70;99.90;;;;;;5027619;28;20069;-88
2021/01/26 09:46:40;;;;;;;1.65;0.40;;;5.60;99.90;;;;;;5021164;28;20041;-87
2021/01/26 09:49:27;;;;;;;3.42;0.85;;;5.50;99.90;;;;;;5023826;28;20112;-87
2021/01/26 09:52:07;;;;;;;5.97;0.93;;;5.40;99.90;;;;;;5035033;28;20032;-88
2021/01/26 09:54:36;;;;;;;3.28;1.75;;;5.40;99.90;;;;;;5023413;28;20063;-87
2021/01/26 09:57:04;;;;;;;2.33;0.65;;;5.50;99.90;;;;;;5026595;28;20018;-88
2021/01/26 09:59:34;;;;;;;2.58;0.85;;;5.70;99.90;;;;;;5039523;28;20018;-89
2021/01/26 10:02:04;;;;;;;2.88;1.20;;;5.80;99.90;;;;;;5039650;28;20194;-87
2021/01/26 10:04:34;;;;;;;28.92;1.70;;;5.80;99.90;;;;;;5026084;28;20116;-87
2021/01/26 10:07:06;;;;;;;4.82;0.95;;;5.80;99.90;;;;;;5031621;28;20049;-86
2021/01/26 10:09:36;;;;;;;5.35;1.60;;;6.00;99.90;;;;;;5033899;28;20025;-86
2021/01/26 10:12:36;;;;;;;4.53;1.02;;;6.00;99.90;;;;;;5029796;28;20096;-87
2021/01/26 10:15:22;;;;;;;3.38;0.88;;;6.10;99.90;;;;;;5034359;28;20137;-88
2021/01/26 10:17:55;;;;;;;6.93;2.50;;;6.10;99.90;;;;;;5028063;28;20036;-88
2021/01/26 10:20:41;;;;;;;3.15;0.98;;;6.30;99.90;;;;;;5028399;28;20413;-86
2021/01/26 10:23:36;;;;;;;4.60;1.30;;;6.30;99.90;;;;;;5029820;28;20048;-88
2021/01/26 10:26:26;;;;;;;3.10;0.93;;;6.50;99.90;;;;;;5026893;28;20029;-86
2021/01/26 10:29:31;;;;;;;;;;;;;;;;;;;;;
2021/01/26 10:31:59;;;;;;;2.78;1.05;;;6.70;99.90;;;;;;5035089;28;20109;-86
2021/01/26 10:34:30;;;;;;;9.75;2.13;;;6.90;99.90;;;;;;5031665;28;20017;-85
2021/01/26 10:37:12;;;;;;;10.02;1.77;;;7.00;99.90;;;;;;5027103;28;20120;-85
2021/01/26 10:39:41;;;;;;;8.25;1.33;;;7.20;99.90;;;;;;5027351;28;20025;-82
2021/01/26 10:42:12;;;;;;;15.90;1.80;;;7.20;99.90;;;;;;5026844;28;20033;-83
2021/01/26 10:44:50;;;;;;;9.63;1.92;;;7.10;99.90;;;;;;5023442;28;20038;-79
2021/01/26 10:47:42;;;;;;;4.72;1.27;;;7.00;99.90;;;;;;5027809;28;20416;-85
2021/01/26 10:50:15;;;;;;;9.40;0.93;;;7.00;99.90;;;;;;5040326;28;20045;-86
2021/01/26 10:52:47;;;;;;;10.57;0.95;;;7.10;99.90;;;;;;5025174;28;20777;-81
2021/01/26 10:55:16;;;;;;;5.68;1.23;;;7.00;99.90;;;;;;5022870;28;20057;-82
2021/01/26 10:57:43;;;;;;;5.18;0.65;;;6.90;99.90;;;;;;5024416;28;20116;-84
2021/01/26 11:00:12;;;;;;;4.60;1.00;;;6.90;99.90;;;;;;5021991;28;20144;-78
2021/01/26 11:02:37;;;;;;;9.68;1.23;;;6.80;99.90;;;;;;5021498;28;20025;-80
2021/01/26 11:05:06;;;;;;;1.80;0.70;;;6.60;99.90;;;;;;5025739;28;20018;-76
2021/01/26 11:07:31;;;;;;;7.82;0.63;;;6.70;99.90;;;;;;5020430;28;20026;-76
2021/01/26 11:09:58;;;;;;;3.90;1.00;;;6.70;99.90;;;;;;5027434;28;20026;-79
2021/01/26 11:12:24;;;;;;;6.90;0.70;;;6.70;99.90;;;;;;5025985;28;20056;-77
2021/01/26 11:14:51;;;;;;;10.65;1.00;;;6.80;99.90;;;;;;5024999;28;20073;-80
2021/01/26 11:17:17;;;;;;;3.92;1.10;;;6.90;99.90;;;;;;5025377;28;20030;-80
2021/01/26 11:19:44;;;;;;;7.15;0.70;;;6.90;99.90;;;;;;5026385;28;20066;-81
2021/01/26 11:22:10;;;;;;;5.18;0.73;;;6.90;99.90;;;;;;5023574;28;20025;-79
2021/01/26 11:24:36;;;;;;;2.05;0.60;;;6.90;99.90;;;;;;5031967;28;20389;-78
2021/01/26 11:27:02;;;;;;;5.32;0.65;;;6.80;99.90;;;;;;5026375;28;20034;-78
2021/01/26 11:29:28;;;;;;;1.67;0.50;;;6.80;99.90;;;;;;5022081;28;20422;-78
2021/01/26 11:31:54;;;;;;;0.85;0.47;;;6.90;99.90;;;;;;5027534;28;20080;-78
2021/01/26 11:34:20;;;;;;;5.50;0.73;;;6.90;99.90;;;;;;5029602;28;20072;-76
2021/01/26 11:36:46;;;;;;;5.40;0.82;;;7.00;99.90;;;;;;5025773;28;20029;-78
2021/01/26 11:39:11;;;;;;;3.63;0.73;;;7.00;99.90;;;;;;5024411;28;20067;-78
2021/01/26 11:41:39;;;;;;;6.10;0.93;;;6.90;99.90;;;;;;5023987;28;20113;-78
2021/01/26 11:44:05;;;;;;;4.93;0.60;;;6.80;99.90;;;;;;5023308;28;20045;-77
2021/01/26 11:46:34;;;;;;;3.78;0.77;;;6.80;99.90;;;;;;5028034;28;20053;-84
2021/01/26 11:49:18;;;;;;;;;;;;;;;;;;;;;
2021/01/26 11:51:46;;;;;;;0.80;0.47;;;6.90;99.90;;;;;;5024539;28;20051;-83
2021/01/26 11:54:14;;;;;;;6.00;0.60;;;6.90;99.90;;;;;;5030495;28;20057;-85
2021/01/26 11:56:40;;;;;;;4.32;0.70;;;6.90;99.90;;;;;;5024181;28;20042;-83
2021/01/26 11:59:06;;;;;;;3.65;0.75;;;7.00;99.90;;;;;;5028476;28;20034;-83
2021/01/26 12:01:32;;;;;;;11.13;2.38;;;6.90;99.90;;;;;;5046709;28;20046;-83
2021/01/26 12:03:58;;;;;;;1.48;0.40;;;6.90;99.90;;;;;;5025432;28;20060;-84
2021/01/26 12:06:24;;;;;;;8.77;0.90;;;6.90;99.90;;;;;;5029108;28;20037;-83
2021/01/26 12:08:50;;;;;;;9.18;0.50;;;7.00;99.90;;;;;;5026749;28;20463;-83
2021/01/26 12:11:16;;;;;;;4.78;0.65;;;7.10;99.90;;;;;;5035769;28;20025;-83
2021/01/26 12:13:43;;;;;;;4.82;0.50;;;7.20;99.90;;;;;;5020788;28;20037;-83
2021/01/26 12:16:09;;;;;;;6.55;0.50;;;7.30;99.90;;;;;;5030274;28;20042;-82
2021/01/26 12:18:35;;;;;;;6.70;1.08;;;7.50;99.90;;;;;;5035644;28;20036;-82
2021/01/26 12:21:02;;;;;;;2.95;0.63;;;7.60;99.90;;;;;;5018153;28;20022;-83
2021/01/26 12:23:27;;;;;;;4.63;0.90;;;7.60;99.90;;;;;;5034639;28;20057;-83
2021/01/26 12:25:57;;;;;;;1.27;0.55;;;7.60;99.90;;;;;;5032516;28;20048;-83
2021/01/26 12:28:24;;;;;;;4.50;0.90;;;7.60;99.90;;;;;;5045958;28;20053;-83
2021/01/26 12:30:50;;;;;;;4.00;1.10;;;7.70;99.90;;;;;;5023827;28;20018;-83
2021/01/26 12:33:16;;;;;;;5.05;1.80;;;7.70;99.90;;;;;;5029153;28;20026;-84
2021/01/26 12:35:42;;;;;;;4.55;1.08;;;7.60;99.90;;;;;;5034548;28;20095;-83
2021/01/26 12:38:09;;;;;;;1.63;1.00;;;7.50;99.90;;;;;;5031596;28;20116;-83
2021/01/26 12:40:37;;;;;;;7.77;1.20;;;7.60;99.90;;;;;;5028397;28;20041;-83
2021/01/26 12:43:05;;;;;;;8.98;1.63;;;7.80;99.90;;;;;;5031031;28;20359;-83
2021/01/26 12:45:38;;;;;;;13.00;1.27;;;7.80;99.90;;;;;;5026596;28;20029;-83
2021/01/26 12:48:16;;;;;;;3.63;1.30;;;7.70;99.90;;;;;;5027789;28;20037;-85
2021/01/26 12:50:43;;;;;;;8.85;1.88;;;7.60;99.90;;;;;;5030584;28;20385;-85
2021/01/26 12:53:09;;;;;;;5.82;1.45;;;7.70;99.90;;;;;;5045189;28;20045;-91
2021/01/26 12:55:44;;;;;;;6.18;1.50;;;7.60;99.90;;;;;;5027832;28;20047;-85
2021/01/26 12:58:10;;;;;;;7.03;1.63;;;7.60;99.90;;;;;;5028818;28;20411;-87
2021/01/26 13:00:39;;;;;;;8.90;1.20;;;7.60;99.90;;;;;;5029817;28;20084;-88
2021/01/26 13:03:04;;;;;;;9.05;1.20;;;7.70;99.90;;;;;;5028490;28;20025;-86
2021/01/26 13:05:34;;;;;;;7.68;1.80;;;7.80;99.90;;;;;;5026976;28;20026;-88
2021/01/26 13:08:00;;;;;;;3.33;1.63;;;7.80;99.90;;;;;;5030543;28;20501;-93
2021/01/26 13:10:27;;;;;;;13.73;1.52;;;7.70;99.90;;;;;;5028622;28;20578;-86
2021/01/26 13:12:58;;;;;;;10.90;1.70;;;7.60;99.90;;;;;;5024220;28;20055;-90
2021/01/26 13:15:24;;;;;;;3.63;1.77;;;7.50;99.90;;;;;;5028102;28;20042;-88
2021/01/26 13:17:52;;;;;;;8.98;2.30;;;7.40;99.90;;;;;;5027452;28;20015;-87
2021/01/26 13:20:18;;;;;;;11.85;2.58;;;7.40;99.90;;;;;;5028544;28;20040;-87
2021/01/26 13:22:44;;;;;;;16.40;2.00;;;7.50;99.90;;;;;;5028946;28;20033;-87
2021/01/26 13:25:12;;;;;;;5.43;2.20;;;7.60;99.90;;;;;;5029527;28;20390;-88
2021/01/26 13:27:38;;;;;;;11.52;2.33;;;7.60;99.90;;;;;;5032176;28;20409;-87
2021/01/26 13:30:07;;;;;;;12.52;2.10;;;7.60;99.90;;;;;;5029834;28;20025;-86
2021/01/26 13:32:34;;;;;;;5.57;2.58;;;7.70;99.90;;;;;;5026014;28;20040;-85
2021/01/26 13:35:00;;;;;;;12.52;2.90;;;7.80;99.90;;;;;;5019432;28;20026;-88